sensor_id;sensor_type;location;lat;lon;timestamp;P1;durP1;ratioP1;P2;durP2;ratioP2
41623;SDS011;27319;50.306;18.926;2023-07-22T00:02:27;10.85;;;8.98;;
41623;SDS011;27319;50.306;18.926;2023-07-22T00:05:28;13.75;;;9.50;;
41623;SDS011;27319;50.306;18.926;2023-07-22T00:08:29;11.45;;;9.50;;
41623;SDS011;27319;50.306;18.926;2023-07-22T00:12:30;14.07;;;9.13;;
41623;SDS011;27319;50.306;18.926;2023-07-22T00:16:31;11.05;;;9.73;;
41623;SDS011;27319;50.306;18.926;2023-07-22T00:19:32;12.68;;;10.25;;
41623;SDS011;27319;50.306;18.926;2023-07-22T00:22:33;14.38;;;10.68;;
41623;SDS011;27319;50.306;18.926;2023-07-22T00:25:34;14.63;;;11.07;;
41623;SDS011;27319;50.306;18.926;2023-07-22T00:29:35;13.45;;;10.45;;
41623;SDS011;27319;50.306;18.926;2023-07-22T00:33:35;17.30;;;11.63;;
41623;SDS011;27319;50.306;18.926;2023-07-22T00:37:36;13.38;;;11.57;;
41623;SDS011;27319;50.306;18.926;2023-07-22T00:40:37;16.25;;;12.35;;
41623;SDS011;27319;50.306;18.926;2023-07-22T00:43:38;13.00;;;11.68;;
41623;SDS011;27319;50.306;18.926;2023-07-22T00:46:38;13.05;;;11.63;;
41623;SDS011;27319;50.306;18.926;2023-07-22T00:49:40;14.13;;;11.65;;
41623;SDS011;27319;50.306;18.926;2023-07-22T00:52:41;17.25;;;13.05;;
41623;SDS011;27319;50.306;18.926;2023-07-22T00:55:42;13.40;;;11.98;;
41623;SDS011;27319;50.306;18.926;2023-07-22T00:58:43;16.17;;;12.65;;
41623;SDS011;27319;50.306;18.926;2023-07-22T01:01:44;13.57;;;11.40;;
41623;SDS011;27319;50.306;18.926;2023-07-22T01:04:45;12.55;;;11.27;;
41623;SDS011;27319;50.306;18.926;2023-07-22T01:07:46;13.45;;;11.80;;
41623;SDS011;27319;50.306;18.926;2023-07-22T01:10:47;17.15;;;11.00;;
41623;SDS011;27319;50.306;18.926;2023-07-22T01:13:49;11.75;;;10.32;;
41623;SDS011;27319;50.306;18.926;2023-07-22T01:16:49;12.73;;;10.63;;
41623;SDS011;27319;50.306;18.926;2023-07-22T01:19:50;12.13;;;10.60;;
41623;SDS011;27319;50.306;18.926;2023-07-22T01:22:52;14.15;;;11.27;;
41623;SDS011;27319;50.306;18.926;2023-07-22T01:26:12;14.45;;;11.68;;
41623;SDS011;27319;50.306;18.926;2023-07-22T01:29:13;13.60;;;11.25;;
41623;SDS011;27319;50.306;18.926;2023-07-22T01:32:14;11.75;;;10.05;;
41623;SDS011;27319;50.306;18.926;2023-07-22T01:35:15;12.30;;;10.55;;
41623;SDS011;27319;50.306;18.926;2023-07-22T01:38:16;13.18;;;10.85;;
41623;SDS011;27319;50.306;18.926;2023-07-22T01:41:16;12.82;;;11.52;;
41623;SDS011;27319;50.306;18.926;2023-07-22T01:44:18;12.48;;;11.13;;
41623;SDS011;27319;50.306;18.926;2023-07-22T01:47:18;12.07;;;9.98;;
41623;SDS011;27319;50.306;18.926;2023-07-22T01:50:19;9.65;;;8.55;;
41623;SDS011;27319;50.306;18.926;2023-07-22T01:53:20;10.55;;;9.02;;
41623;SDS011;27319;50.306;18.926;2023-07-22T01:56:21;9.00;;;8.10;;
41623;SDS011;27319;50.306;18.926;2023-07-22T01:59:22;11.95;;;8.30;;
41623;SDS011;27319;50.306;18.926;2023-07-22T02:02:23;10.07;;;8.77;;
41623;SDS011;27319;50.306;18.926;2023-07-22T02:05:25;12.23;;;8.07;;
41623;SDS011;27319;50.306;18.926;2023-07-22T02:09:26;9.88;;;7.93;;
41623;SDS011;27319;50.306;18.926;2023-07-22T02:12:27;10.68;;;8.52;;
41623;SDS011;27319;50.306;18.926;2023-07-22T02:15:28;12.80;;;9.05;;
41623;SDS011;27319;50.306;18.926;2023-07-22T02:18:29;11.13;;;8.48;;
41623;SDS011;27319;50.306;18.926;2023-07-22T02:21:30;14.68;;;9.65;;
41623;SDS011;27319;50.306;18.926;2023-07-22T02:24:31;12.70;;;9.98;;
41623;SDS011;27319;50.306;18.926;2023-07-22T02:27:33;11.73;;;10.15;;
41623;SDS011;27319;50.306;18.926;2023-07-22T02:30:34;15.45;;;12.80;;
41623;SDS011;27319;50.306;18.926;2023-07-22T02:33:36;16.35;;;12.73;;
41623;SDS011;27319;50.306;18.926;2023-07-22T02:36:37;15.63;;;11.93;;
41623;SDS011;27319;50.306;18.926;2023-07-22T02:39:38;13.18;;;10.57;;
41623;SDS011;27319;50.306;18.926;2023-07-22T02:42:39;13.15;;;9.55;;
41623;SDS011;27319;50.306;18.926;2023-07-22T02:45:40;11.27;;;8.80;;
41623;SDS011;27319;50.306;18.926;2023-07-22T02:48:41;15.65;;;8.00;;
41623;SDS011;27319;50.306;18.926;2023-07-22T02:51:42;9.57;;;7.78;;
41623;SDS011;27319;50.306;18.926;2023-07-22T02:54:42;11.10;;;8.65;;
41623;SDS011;27319;50.306;18.926;2023-07-22T02:58:13;10.38;;;8.10;;
41623;SDS011;27319;50.306;18.926;2023-07-22T03:01:14;14.45;;;9.20;;
41623;SDS011;27319;50.306;18.926;2023-07-22T03:04:15;14.20;;;9.13;;
41623;SDS011;27319;50.306;18.926;2023-07-22T03:07:16;26.00;;;23.25;;
41623;SDS011;27319;50.306;18.926;2023-07-22T03:10:17;34.60;;;31.10;;
41623;SDS011;27319;50.306;18.926;2023-07-22T03:13:17;32.45;;;29.17;;
41623;SDS011;27319;50.306;18.926;2023-07-22T03:16:19;31.40;;;27.92;;
41623;SDS011;27319;50.306;18.926;2023-07-22T03:20:20;29.63;;;24.90;;
41623;SDS011;27319;50.306;18.926;2023-07-22T03:23:22;25.58;;;21.30;;
41623;SDS011;27319;50.306;18.926;2023-07-22T03:26:23;25.73;;;18.20;;
41623;SDS011;27319;50.306;18.926;2023-07-22T03:29:24;17.38;;;14.90;;
41623;SDS011;27319;50.306;18.926;2023-07-22T03:32:25;18.73;;;14.43;;
41623;SDS011;27319;50.306;18.926;2023-07-22T03:35:26;15.73;;;13.65;;
41623;SDS011;27319;50.306;18.926;2023-07-22T03:38:27;20.52;;;15.18;;
41623;SDS011;27319;50.306;18.926;2023-07-22T03:41:28;18.38;;;14.55;;
41623;SDS011;27319;50.306;18.926;2023-07-22T03:44:29;16.98;;;15.25;;
41623;SDS011;27319;50.306;18.926;2023-07-22T03:48:30;22.60;;;16.17;;
41623;SDS011;27319;50.306;18.926;2023-07-22T03:52:31;22.38;;;17.17;;
41623;SDS011;27319;50.306;18.926;2023-07-22T03:56:31;17.27;;;14.90;;
41623;SDS011;27319;50.306;18.926;2023-07-22T04:00:32;21.38;;;16.23;;
41623;SDS011;27319;50.306;18.926;2023-07-22T04:04:33;17.48;;;15.35;;
41623;SDS011;27319;50.306;18.926;2023-07-22T04:08:33;19.42;;;15.32;;
41623;SDS011;27319;50.306;18.926;2023-07-22T04:12:34;21.15;;;15.63;;
41623;SDS011;27319;50.306;18.926;2023-07-22T04:15:35;19.77;;;14.63;;
41623;SDS011;27319;50.306;18.926;2023-07-22T04:19:36;20.40;;;13.93;;
41623;SDS011;27319;50.306;18.926;2023-07-22T04:23:37;17.42;;;13.35;;
41623;SDS011;27319;50.306;18.926;2023-07-22T04:26:37;29.58;;;14.23;;
41623;SDS011;27319;50.306;18.926;2023-07-22T04:29:38;19.67;;;14.75;;
41623;SDS011;27319;50.306;18.926;2023-07-22T04:32:39;16.80;;;13.60;;
41623;SDS011;27319;50.306;18.926;2023-07-22T04:35:40;16.52;;;14.02;;
41623;SDS011;27319;50.306;18.926;2023-07-22T04:39:41;18.45;;;14.43;;
41623;SDS011;27319;50.306;18.926;2023-07-22T04:43:42;15.63;;;14.02;;
41623;SDS011;27319;50.306;18.926;2023-07-22T04:46:42;19.52;;;14.45;;
41623;SDS011;27319;50.306;18.926;2023-07-22T04:49:43;17.45;;;14.07;;
41623;SDS011;27319;50.306;18.926;2023-07-22T04:52:45;18.60;;;13.63;;
41623;SDS011;27319;50.306;18.926;2023-07-22T04:55:47;18.60;;;14.10;;
41623;SDS011;27319;50.306;18.926;2023-07-22T04:58:48;16.63;;;12.70;;
41623;SDS011;27319;50.306;18.926;2023-07-22T05:01:49;13.82;;;10.82;;
41623;SDS011;27319;50.306;18.926;2023-07-22T05:04:50;21.75;;;10.90;;
41623;SDS011;27319;50.306;18.926;2023-07-22T05:07:51;12.82;;;9.55;;
41623;SDS011;27319;50.306;18.926;2023-07-22T05:10:52;12.60;;;9.48;;
41623;SDS011;27319;50.306;18.926;2023-07-22T05:13:54;16.38;;;9.20;;
41623;SDS011;27319;50.306;18.926;2023-07-22T05:16:54;16.00;;;10.55;;
41623;SDS011;27319;50.306;18.926;2023-07-22T05:19:55;20.95;;;11.05;;
41623;SDS011;27319;50.306;18.926;2023-07-22T05:22:56;18.75;;;9.60;;
41623;SDS011;27319;50.306;18.926;2023-07-22T05:25:59;19.73;;;9.23;;
41623;SDS011;27319;50.306;18.926;2023-07-22T05:28:59;10.75;;;8.10;;
41623;SDS011;27319;50.306;18.926;2023-07-22T05:32:00;10.63;;;7.68;;
41623;SDS011;27319;50.306;18.926;2023-07-22T05:35:01;11.23;;;8.15;;
41623;SDS011;27319;50.306;18.926;2023-07-22T05:38:05;11.25;;;7.35;;
41623;SDS011;27319;50.306;18.926;2023-07-22T05:41:06;14.73;;;7.55;;
41623;SDS011;27319;50.306;18.926;2023-07-22T05:44:07;11.43;;;7.13;;
41623;SDS011;27319;50.306;18.926;2023-07-22T05:47:08;13.10;;;6.70;;
41623;SDS011;27319;50.306;18.926;2023-07-22T05:50:09;17.52;;;7.50;;
41623;SDS011;27319;50.306;18.926;2023-07-22T05:53:10;9.75;;;6.07;;
41623;SDS011;27319;50.306;18.926;2023-07-22T05:56:11;7.30;;;6.45;;
41623;SDS011;27319;50.306;18.926;2023-07-22T06:00:12;11.00;;;5.82;;
41623;SDS011;27319;50.306;18.926;2023-07-22T06:03:13;10.02;;;6.10;;
41623;SDS011;27319;50.306;18.926;2023-07-22T06:06:14;10.10;;;6.00;;
41623;SDS011;27319;50.306;18.926;2023-07-22T06:09:15;12.50;;;6.82;;
41623;SDS011;27319;50.306;18.926;2023-07-22T06:12:16;11.00;;;6.65;;
41623;SDS011;27319;50.306;18.926;2023-07-22T06:15:17;12.45;;;6.72;;
41623;SDS011;27319;50.306;18.926;2023-07-22T06:19:17;8.75;;;6.78;;
41623;SDS011;27319;50.306;18.926;2023-07-22T06:22:18;11.32;;;5.97;;
41623;SDS011;27319;50.306;18.926;2023-07-22T06:25:19;12.13;;;6.93;;
41623;SDS011;27319;50.306;18.926;2023-07-22T06:29:20;10.23;;;6.57;;
41623;SDS011;27319;50.306;18.926;2023-07-22T06:32:21;10.45;;;5.68;;
41623;SDS011;27319;50.306;18.926;2023-07-22T06:35:22;10.40;;;6.35;;
41623;SDS011;27319;50.306;18.926;2023-07-22T06:38:22;6.55;;;5.90;;
41623;SDS011;27319;50.306;18.926;2023-07-22T06:41:24;9.75;;;6.05;;
41623;SDS011;27319;50.306;18.926;2023-07-22T06:45:25;10.52;;;5.47;;
41623;SDS011;27319;50.306;18.926;2023-07-22T06:48:25;6.15;;;5.15;;
41623;SDS011;27319;50.306;18.926;2023-07-22T06:51:26;7.85;;;5.25;;
41623;SDS011;27319;50.306;18.926;2023-07-22T06:54:27;7.93;;;4.85;;
41623;SDS011;27319;50.306;18.926;2023-07-22T06:57:29;7.50;;;4.95;;
41623;SDS011;27319;50.306;18.926;2023-07-22T07:01:29;7.88;;;3.90;;
41623;SDS011;27319;50.306;18.926;2023-07-22T07:05:30;5.97;;;4.03;;
41623;SDS011;27319;50.306;18.926;2023-07-22T07:08:30;7.82;;;3.58;;
41623;SDS011;27319;50.306;18.926;2023-07-22T07:11:31;7.43;;;5.03;;
41623;SDS011;27319;50.306;18.926;2023-07-22T07:14:32;6.82;;;3.80;;
41623;SDS011;27319;50.306;18.926;2023-07-22T07:17:34;8.30;;;4.43;;
41623;SDS011;27319;50.306;18.926;2023-07-22T07:20:35;7.80;;;4.25;;
41623;SDS011;27319;50.306;18.926;2023-07-22T07:23:36;10.38;;;4.30;;
41623;SDS011;27319;50.306;18.926;2023-07-22T07:26:36;5.85;;;4.35;;
41623;SDS011;27319;50.306;18.926;2023-07-22T07:29:37;6.65;;;3.72;;
41623;SDS011;27319;50.306;18.926;2023-07-22T07:32:38;4.82;;;3.75;;
41623;SDS011;27319;50.306;18.926;2023-07-22T07:35:39;5.00;;;4.18;;
41623;SDS011;27319;50.306;18.926;2023-07-22T07:38:40;6.03;;;3.42;;
41623;SDS011;27319;50.306;18.926;2023-07-22T07:41:41;7.35;;;4.53;;
41623;SDS011;27319;50.306;18.926;2023-07-22T07:44:42;4.88;;;3.83;;
41623;SDS011;27319;50.306;18.926;2023-07-22T07:47:43;3.72;;;2.85;;
41623;SDS011;27319;50.306;18.926;2023-07-22T07:50:43;8.25;;;3.42;;
41623;SDS011;27319;50.306;18.926;2023-07-22T07:53:45;5.97;;;4.18;;
41623;SDS011;27319;50.306;18.926;2023-07-22T07:56:49;6.88;;;4.50;;
41623;SDS011;27319;50.306;18.926;2023-07-22T07:59:50;4.00;;;3.58;;
41623;SDS011;27319;50.306;18.926;2023-07-22T08:03:51;8.00;;;3.65;;
41623;SDS011;27319;50.306;18.926;2023-07-22T08:07:52;6.20;;;2.90;;
41623;SDS011;27319;50.306;18.926;2023-07-22T08:11:53;3.97;;;2.50;;
41623;SDS011;27319;50.306;18.926;2023-07-22T08:15:53;4.38;;;2.50;;
41623;SDS011;27319;50.306;18.926;2023-07-22T08:19:54;5.70;;;3.10;;
41623;SDS011;27319;50.306;18.926;2023-07-22T08:23:55;5.90;;;2.40;;
41623;SDS011;27319;50.306;18.926;2023-07-22T08:27:56;12.40;;;3.22;;
41623;SDS011;27319;50.306;18.926;2023-07-22T08:31:56;4.30;;;3.22;;
41623;SDS011;27319;50.306;18.926;2023-07-22T08:35:57;7.03;;;3.50;;
41623;SDS011;27319;50.306;18.926;2023-07-22T08:39:58;4.72;;;3.22;;
41623;SDS011;27319;50.306;18.926;2023-07-22T08:43:59;8.10;;;4.13;;
41623;SDS011;27319;50.306;18.926;2023-07-22T08:47:59;4.32;;;3.92;;
41623;SDS011;27319;50.306;18.926;2023-07-22T08:52:00;4.90;;;3.95;;
41623;SDS011;27319;50.306;18.926;2023-07-22T08:56:01;3.88;;;2.75;;
41623;SDS011;27319;50.306;18.926;2023-07-22T09:00:02;5.82;;;3.50;;
41623;SDS011;27319;50.306;18.926;2023-07-22T09:04:02;6.03;;;3.63;;
41623;SDS011;27319;50.306;18.926;2023-07-22T09:08:04;4.50;;;4.07;;
41623;SDS011;27319;50.306;18.926;2023-07-22T09:12:04;6.38;;;4.28;;
41623;SDS011;27319;50.306;18.926;2023-07-22T09:16:06;6.82;;;4.18;;
41623;SDS011;27319;50.306;18.926;2023-07-22T09:19:07;3.90;;;3.20;;
41623;SDS011;27319;50.306;18.926;2023-07-22T09:22:08;5.07;;;3.33;;
41623;SDS011;27319;50.306;18.926;2023-07-22T09:25:16;6.03;;;3.50;;
41623;SDS011;27319;50.306;18.926;2023-07-22T09:28:17;4.18;;;3.40;;
41623;SDS011;27319;50.306;18.926;2023-07-22T09:31:19;4.47;;;3.17;;
41623;SDS011;27319;50.306;18.926;2023-07-22T09:34:55;3.40;;;3.10;;
41623;SDS011;27319;50.306;18.926;2023-07-22T09:37:56;3.20;;;2.80;;
41623;SDS011;27319;50.306;18.926;2023-07-22T09:40:57;3.92;;;2.90;;
41623;SDS011;27319;50.306;18.926;2023-07-22T09:44:30;4.03;;;2.83;;
41623;SDS011;27319;50.306;18.926;2023-07-22T09:47:42;9.02;;;2.75;;
41623;SDS011;27319;50.306;18.926;2023-07-22T09:51:43;5.97;;;2.70;;
41623;SDS011;27319;50.306;18.926;2023-07-22T09:55:43;5.65;;;3.25;;
41623;SDS011;27319;50.306;18.926;2023-07-22T09:59:43;4.82;;;2.65;;
41623;SDS011;27319;50.306;18.926;2023-07-22T10:03:44;6.53;;;2.40;;
41623;SDS011;27319;50.306;18.926;2023-07-22T10:07:49;11.52;;;3.63;;
41623;SDS011;27319;50.306;18.926;2023-07-22T10:11:49;3.70;;;2.63;;
41623;SDS011;27319;50.306;18.926;2023-07-22T10:15:49;15.40;;;3.65;;
41623;SDS011;27319;50.306;18.926;2023-07-22T10:19:50;73.95;;;7.70;;
41623;SDS011;27319;50.306;18.926;2023-07-22T10:23:51;4.78;;;3.30;;
41623;SDS011;27319;50.306;18.926;2023-07-22T10:27:52;40.03;;;5.22;;
41623;SDS011;27319;50.306;18.926;2023-07-22T10:31:53;33.58;;;4.63;;
41623;SDS011;27319;50.306;18.926;2023-07-22T10:34:54;5.32;;;3.20;;
41623;SDS011;27319;50.306;18.926;2023-07-22T10:37:55;7.47;;;2.55;;
41623;SDS011;27319;50.306;18.926;2023-07-22T10:42:05;5.45;;;2.30;;
41623;SDS011;27319;50.306;18.926;2023-07-22T10:46:09;13.15;;;3.40;;
41623;SDS011;27319;50.306;18.926;2023-07-22T10:50:15;16.63;;;4.10;;
41623;SDS011;27319;50.306;18.926;2023-07-22T10:54:31;8.07;;;4.03;;
41623;SDS011;27319;50.306;18.926;2023-07-22T10:59:17;15.55;;;2.90;;
41623;SDS011;27319;50.306;18.926;2023-07-22T11:02:22;6.95;;;2.42;;
41623;SDS011;27319;50.306;18.926;2023-07-22T11:06:13;11.90;;;2.75;;
41623;SDS011;27319;50.306;18.926;2023-07-22T11:10:14;11.32;;;3.45;;
41623;SDS011;27319;50.306;18.926;2023-07-22T11:14:18;44.15;;;5.25;;
41623;SDS011;27319;50.306;18.926;2023-07-22T11:18:15;12.05;;;3.45;;
41623;SDS011;27319;50.306;18.926;2023-07-22T11:22:15;9.73;;;2.50;;
41623;SDS011;27319;50.306;18.926;2023-07-22T11:26:16;6.47;;;2.50;;
41623;SDS011;27319;50.306;18.926;2023-07-22T11:30:17;11.85;;;2.97;;
41623;SDS011;27319;50.306;18.926;2023-07-22T11:33:18;30.75;;;3.80;;
41623;SDS011;27319;50.306;18.926;2023-07-22T11:36:19;16.80;;;3.60;;
41623;SDS011;27319;50.306;18.926;2023-07-22T11:39:20;78.70;;;7.60;;
41623;SDS011;27319;50.306;18.926;2023-07-22T11:42:23;17.17;;;3.55;;
41623;SDS011;27319;50.306;18.926;2023-07-22T11:45:24;6.28;;;2.90;;
41623;SDS011;27319;50.306;18.926;2023-07-22T11:48:25;18.27;;;3.17;;
41623;SDS011;27319;50.306;18.926;2023-07-22T11:51:26;38.03;;;4.78;;
41623;SDS011;27319;50.306;18.926;2023-07-22T11:54:27;23.23;;;5.95;;
41623;SDS011;27319;50.306;18.926;2023-07-22T11:57:29;16.67;;;3.45;;
41623;SDS011;27319;50.306;18.926;2023-07-22T12:00:30;17.45;;;4.47;;
41623;SDS011;27319;50.306;18.926;2023-07-22T12:03:33;17.50;;;4.18;;
41623;SDS011;27319;50.306;18.926;2023-07-22T12:06:34;6.90;;;3.45;;
41623;SDS011;27319;50.306;18.926;2023-07-22T12:10:35;5.50;;;2.75;;
41623;SDS011;27319;50.306;18.926;2023-07-22T12:14:35;10.63;;;2.10;;
41623;SDS011;27319;50.306;18.926;2023-07-22T12:22:03;5.10;;;2.30;;
41623;SDS011;27319;50.306;18.926;2023-07-22T12:26:04;4.45;;;2.30;;
41623;SDS011;27319;50.306;18.926;2023-07-22T12:29:05;9.95;;;2.78;;
41623;SDS011;27319;50.306;18.926;2023-07-22T12:32:06;5.22;;;2.55;;
41623;SDS011;27319;50.306;18.926;2023-07-22T12:35:08;4.95;;;2.50;;
41623;SDS011;27319;50.306;18.926;2023-07-22T12:38:09;4.05;;;2.50;;
41623;SDS011;27319;50.306;18.926;2023-07-22T12:41:10;5.88;;;2.08;;
41623;SDS011;27319;50.306;18.926;2023-07-22T12:44:11;5.00;;;2.03;;
41623;SDS011;27319;50.306;18.926;2023-07-22T12:47:12;8.93;;;3.80;;
41623;SDS011;27319;50.306;18.926;2023-07-22T12:50:13;21.75;;;4.53;;
41623;SDS011;27319;50.306;18.926;2023-07-22T12:53:14;38.38;;;4.93;;
41623;SDS011;27319;50.306;18.926;2023-07-22T12:56:15;12.05;;;3.63;;
41623;SDS011;27319;50.306;18.926;2023-07-22T13:00:15;4.95;;;3.10;;
41623;SDS011;27319;50.306;18.926;2023-07-22T13:04:16;6.22;;;3.90;;
41623;SDS011;27319;50.306;18.926;2023-07-22T13:08:17;8.40;;;3.85;;
41623;SDS011;27319;50.306;18.926;2023-07-22T13:12:18;8.20;;;5.05;;
41623;SDS011;27319;50.306;18.926;2023-07-22T13:16:19;4.22;;;3.83;;
41623;SDS011;27319;50.306;18.926;2023-07-22T13:19:19;7.85;;;3.55;;
41623;SDS011;27319;50.306;18.926;2023-07-22T13:23:20;3.95;;;3.08;;
41623;SDS011;27319;50.306;18.926;2023-07-22T13:27:21;7.50;;;2.67;;
41623;SDS011;27319;50.306;18.926;2023-07-22T13:31:22;5.88;;;2.45;;
41623;SDS011;27319;50.306;18.926;2023-07-22T13:35:23;3.53;;;2.83;;
41623;SDS011;27319;50.306;18.926;2023-07-22T13:39:23;5.28;;;2.72;;
41623;SDS011;27319;50.306;18.926;2023-07-22T13:43:24;7.70;;;3.95;;
41623;SDS011;27319;50.306;18.926;2023-07-22T13:47:25;6.75;;;3.10;;
41623;SDS011;27319;50.306;18.926;2023-07-22T13:50:26;7.82;;;3.90;;
41623;SDS011;27319;50.306;18.926;2023-07-22T13:53:27;6.28;;;3.40;;
41623;SDS011;27319;50.306;18.926;2023-07-22T13:56:28;6.40;;;4.40;;
41623;SDS011;27319;50.306;18.926;2023-07-22T13:59:29;3.75;;;3.33;;
41623;SDS011;27319;50.306;18.926;2023-07-22T14:03:30;3.55;;;3.25;;
41623;SDS011;27319;50.306;18.926;2023-07-22T14:07:30;6.53;;;3.20;;
41623;SDS011;27319;50.306;18.926;2023-07-22T14:11:11;4.50;;;3.38;;
41623;SDS011;27319;50.306;18.926;2023-07-22T14:15:12;3.67;;;3.03;;
41623;SDS011;27319;50.306;18.926;2023-07-22T14:18:12;5.32;;;4.28;;
41623;SDS011;27319;50.306;18.926;2023-07-22T14:21:18;7.40;;;4.38;;
41623;SDS011;27319;50.306;18.926;2023-07-22T14:24:19;4.53;;;2.67;;
41623;SDS011;27319;50.306;18.926;2023-07-22T14:27:20;4.55;;;3.10;;
41623;SDS011;27319;50.306;18.926;2023-07-22T14:30:21;5.03;;;2.78;;
41623;SDS011;27319;50.306;18.926;2023-07-22T14:33:22;3.30;;;3.00;;
41623;SDS011;27319;50.306;18.926;2023-07-22T14:36:23;3.85;;;3.08;;
41623;SDS011;27319;50.306;18.926;2023-07-22T14:39:24;2.95;;;2.38;;
41623;SDS011;27319;50.306;18.926;2023-07-22T14:42:25;3.58;;;2.65;;
41623;SDS011;27319;50.306;18.926;2023-07-22T14:45:27;5.35;;;3.03;;
41623;SDS011;27319;50.306;18.926;2023-07-22T14:48:27;4.88;;;2.60;;
41623;SDS011;27319;50.306;18.926;2023-07-22T14:51:28;3.70;;;2.83;;
41623;SDS011;27319;50.306;18.926;2023-07-22T14:55:29;8.15;;;2.90;;
41623;SDS011;27319;50.306;18.926;2023-07-22T14:59:06;4.75;;;2.50;;
41623;SDS011;27319;50.306;18.926;2023-07-22T15:02:07;5.05;;;2.63;;
41623;SDS011;27319;50.306;18.926;2023-07-22T15:05:08;4.90;;;2.35;;
41623;SDS011;27319;50.306;18.926;2023-07-22T15:08:09;4.93;;;2.28;;
41623;SDS011;27319;50.306;18.926;2023-07-22T15:11:10;3.88;;;2.13;;
41623;SDS011;27319;50.306;18.926;2023-07-22T15:14:11;8.02;;;2.58;;
41623;SDS011;27319;50.306;18.926;2023-07-22T15:17:12;3.55;;;2.40;;
41623;SDS011;27319;50.306;18.926;2023-07-22T15:20:13;7.10;;;3.42;;
41623;SDS011;27319;50.306;18.926;2023-07-22T15:23:13;4.15;;;2.47;;
41623;SDS011;27319;50.306;18.926;2023-07-22T15:26:14;3.97;;;2.63;;
41623;SDS011;27319;50.306;18.926;2023-07-22T15:29:15;2.47;;;2.05;;
41623;SDS011;27319;50.306;18.926;2023-07-22T15:32:16;3.00;;;2.63;;
41623;SDS011;27319;50.306;18.926;2023-07-22T15:35:17;4.60;;;2.50;;
41623;SDS011;27319;50.306;18.926;2023-07-22T15:38:18;3.22;;;2.53;;
41623;SDS011;27319;50.306;18.926;2023-07-22T15:41:19;7.47;;;2.47;;
41623;SDS011;27319;50.306;18.926;2023-07-22T15:45:20;3.42;;;2.38;;
41623;SDS011;27319;50.306;18.926;2023-07-22T15:48:22;2.70;;;2.20;;
41623;SDS011;27319;50.306;18.926;2023-07-22T15:51:23;6.20;;;2.90;;
41623;SDS011;27319;50.306;18.926;2023-07-22T15:54:24;3.42;;;2.50;;
41623;SDS011;27319;50.306;18.926;2023-07-22T15:57:25;3.30;;;2.45;;
41623;SDS011;27319;50.306;18.926;2023-07-22T16:00:26;3.08;;;2.47;;
41623;SDS011;27319;50.306;18.926;2023-07-22T16:04:27;6.15;;;2.97;;
41623;SDS011;27319;50.306;18.926;2023-07-22T16:08:27;4.07;;;2.42;;
41623;SDS011;27319;50.306;18.926;2023-07-22T16:12:28;4.00;;;2.50;;
41623;SDS011;27319;50.306;18.926;2023-07-22T16:16:29;3.42;;;2.47;;
41623;SDS011;27319;50.306;18.926;2023-07-22T16:20:30;4.80;;;2.30;;
41623;SDS011;27319;50.306;18.926;2023-07-22T16:24:31;4.25;;;1.90;;
41623;SDS011;27319;50.306;18.926;2023-07-22T16:28:31;4.55;;;2.80;;
41623;SDS011;27319;50.306;18.926;2023-07-22T16:32:32;6.43;;;2.75;;
41623;SDS011;27319;50.306;18.926;2023-07-22T16:36:36;4.38;;;2.35;;
41623;SDS011;27319;50.306;18.926;2023-07-22T16:40:37;11.23;;;2.95;;
41623;SDS011;27319;50.306;18.926;2023-07-22T16:44:37;8.20;;;2.85;;
41623;SDS011;27319;50.306;18.926;2023-07-22T16:48:38;5.05;;;2.60;;
41623;SDS011;27319;50.306;18.926;2023-07-22T16:52:38;6.43;;;2.35;;
41623;SDS011;27319;50.306;18.926;2023-07-22T16:56:40;4.35;;;2.60;;
41623;SDS011;27319;50.306;18.926;2023-07-22T17:00:40;4.13;;;2.45;;
41623;SDS011;27319;50.306;18.926;2023-07-22T17:04:41;6.00;;;2.63;;
41623;SDS011;27319;50.306;18.926;2023-07-22T17:08:42;5.28;;;3.28;;
41623;SDS011;27319;50.306;18.926;2023-07-22T17:12:42;5.95;;;2.92;;
41623;SDS011;27319;50.306;18.926;2023-07-22T17:16:43;5.30;;;3.05;;
41623;SDS011;27319;50.306;18.926;2023-07-22T17:20:44;4.95;;;3.47;;
41623;SDS011;27319;50.306;18.926;2023-07-22T17:24:45;4.30;;;3.45;;
41623;SDS011;27319;50.306;18.926;2023-07-22T17:28:46;4.07;;;3.67;;
41623;SDS011;27319;50.306;18.926;2023-07-22T17:32:46;4.05;;;3.65;;
41623;SDS011;27319;50.306;18.926;2023-07-22T17:36:47;6.38;;;3.92;;
41623;SDS011;27319;50.306;18.926;2023-07-22T17:40:48;6.47;;;4.43;;
41623;SDS011;27319;50.306;18.926;2023-07-22T17:44:49;5.03;;;4.13;;
41623;SDS011;27319;50.306;18.926;2023-07-22T17:48:49;10.77;;;3.35;;
41623;SDS011;27319;50.306;18.926;2023-07-22T17:52:50;4.93;;;2.97;;
41623;SDS011;27319;50.306;18.926;2023-07-22T17:56:51;7.05;;;3.80;;
41623;SDS011;27319;50.306;18.926;2023-07-22T18:00:52;6.65;;;3.70;;
41623;SDS011;27319;50.306;18.926;2023-07-22T18:04:53;7.95;;;4.95;;
41623;SDS011;27319;50.306;18.926;2023-07-22T18:08:53;9.82;;;4.65;;
41623;SDS011;27319;50.306;18.926;2023-07-22T18:12:54;8.23;;;4.20;;
41623;SDS011;27319;50.306;18.926;2023-07-22T18:16:55;7.40;;;4.22;;
41623;SDS011;27319;50.306;18.926;2023-07-22T18:20:56;11.02;;;4.57;;
41623;SDS011;27319;50.306;18.926;2023-07-22T18:23:57;9.70;;;3.58;;
41623;SDS011;27319;50.306;18.926;2023-07-22T18:27:57;5.72;;;3.90;;
41623;SDS011;27319;50.306;18.926;2023-07-22T18:30:58;6.68;;;3.63;;
41623;SDS011;27319;50.306;18.926;2023-07-22T18:33:59;11.48;;;4.30;;
41623;SDS011;27319;50.306;18.926;2023-07-22T18:37:00;7.25;;;4.25;;
41623;SDS011;27319;50.306;18.926;2023-07-22T18:40:01;6.43;;;4.20;;
41623;SDS011;27319;50.306;18.926;2023-07-22T18:43:04;6.13;;;4.43;;
41623;SDS011;27319;50.306;18.926;2023-07-22T18:46:18;7.68;;;4.90;;
41623;SDS011;27319;50.306;18.926;2023-07-22T18:49:20;14.52;;;4.88;;
41623;SDS011;27319;50.306;18.926;2023-07-22T18:52:21;8.43;;;4.45;;
41623;SDS011;27319;50.306;18.926;2023-07-22T18:55:22;7.97;;;4.90;;
41623;SDS011;27319;50.306;18.926;2023-07-22T18:58:23;10.43;;;5.82;;
41623;SDS011;27319;50.306;18.926;2023-07-22T19:01:24;7.78;;;6.47;;
41623;SDS011;27319;50.306;18.926;2023-07-22T19:05:25;14.35;;;6.38;;
41623;SDS011;27319;50.306;18.926;2023-07-22T19:09:26;5.95;;;4.53;;
41623;SDS011;27319;50.306;18.926;2023-07-22T19:12:26;7.20;;;4.57;;
41623;SDS011;27319;50.306;18.926;2023-07-22T19:15:27;7.75;;;4.43;;
41623;SDS011;27319;50.306;18.926;2023-07-22T19:18:28;9.88;;;5.60;;
41623;SDS011;27319;50.306;18.926;2023-07-22T19:21:29;9.95;;;5.22;;
41623;SDS011;27319;50.306;18.926;2023-07-22T19:24:30;10.07;;;6.13;;
41623;SDS011;27319;50.306;18.926;2023-07-22T19:27:31;10.23;;;6.45;;
41623;SDS011;27319;50.306;18.926;2023-07-22T19:30:36;11.05;;;6.18;;
41623;SDS011;27319;50.306;18.926;2023-07-22T19:33:40;10.05;;;6.70;;
41623;SDS011;27319;50.306;18.926;2023-07-22T19:36:40;11.77;;;8.15;;
41623;SDS011;27319;50.306;18.926;2023-07-22T19:39:42;17.33;;;11.18;;
41623;SDS011;27319;50.306;18.926;2023-07-22T19:42:42;31.25;;;22.40;;
41623;SDS011;27319;50.306;18.926;2023-07-22T19:45:43;43.20;;;28.35;;
41623;SDS011;27319;50.306;18.926;2023-07-22T19:48:44;45.15;;;31.30;;
41623;SDS011;27319;50.306;18.926;2023-07-22T19:51:45;50.05;;;33.70;;
41623;SDS011;27319;50.306;18.926;2023-07-22T19:54:46;44.58;;;29.80;;
41623;SDS011;27319;50.306;18.926;2023-07-22T19:57:47;48.88;;;28.90;;